sensor_id;sensor_type;location;lat;lon;timestamp;temperature;humidity
68485;DHT22;55472;50.060;21.960;2022-10-31T00:00:46;10.00;96.10
68485;DHT22;55472;50.060;21.960;2022-10-31T00:03:33;10.00;96.20
68485;DHT22;55472;50.060;21.960;2022-10-31T00:05:59;10.00;96.40
68485;DHT22;55472;50.060;21.960;2022-10-31T00:08:27;10.00;96.40
68485;DHT22;55472;50.060;21.960;2022-10-31T00:10:53;10.00;96.50
68485;DHT22;55472;50.060;21.960;2022-10-31T00:13:19;10.00;96.50
68485;DHT22;55472;50.060;21.960;2022-10-31T00:15:45;10.00;96.80
68485;DHT22;55472;50.060;21.960;2022-10-31T00:18:11;10.00;96.90
68485;DHT22;55472;50.060;21.960;2022-10-31T00:20:37;10.00;97.00
68485;DHT22;55472;50.060;21.960;2022-10-31T00:23:05;10.00;96.90
68485;DHT22;55472;50.060;21.960;2022-10-31T00:25:37;10.00;97.00
68485;DHT22;55472;50.060;21.960;2022-10-31T00:28:08;9.90;97.00
68485;DHT22;55472;50.060;21.960;2022-10-31T00:30:35;9.90;97.20
68485;DHT22;55472;50.060;21.960;2022-10-31T00:33:03;9.90;97.00
68485;DHT22;55472;50.060;21.960;2022-10-31T00:35:30;9.90;97.20
68485;DHT22;55472;50.060;21.960;2022-10-31T00:37:57;9.90;97.30
68485;DHT22;55472;50.060;21.960;2022-10-31T00:40:22;9.90;97.30
68485;DHT22;55472;50.060;21.960;2022-10-31T00:42:48;9.80;97.40
68485;DHT22;55472;50.060;21.960;2022-10-31T00:45:14;9.80;97.60
68485;DHT22;55472;50.060;21.960;2022-10-31T00:47:41;9.80;97.60
68485;DHT22;55472;50.060;21.960;2022-10-31T00:50:07;9.80;97.80
68485;DHT22;55472;50.060;21.960;2022-10-31T00:52:33;9.80;97.70
68485;DHT22;55472;50.060;21.960;2022-10-31T00:54:59;9.80;97.80
68485;DHT22;55472;50.060;21.960;2022-10-31T00:57:25;9.80;97.90
68485;DHT22;55472;50.060;21.960;2022-10-31T00:59:51;9.80;97.90
68485;DHT22;55472;50.060;21.960;2022-10-31T01:02:17;9.80;97.90
68485;DHT22;55472;50.060;21.960;2022-10-31T01:04:43;9.80;98.00
68485;DHT22;55472;50.060;21.960;2022-10-31T01:07:10;9.70;98.10
68485;DHT22;55472;50.060;21.960;2022-10-31T01:09:37;9.70;98.20
68485;DHT22;55472;50.060;21.960;2022-10-31T01:12:03;9.70;98.30
68485;DHT22;55472;50.060;21.960;2022-10-31T01:14:29;9.70;98.40
68485;DHT22;55472;50.060;21.960;2022-10-31T01:16:55;9.70;98.40
68485;DHT22;55472;50.060;21.960;2022-10-31T01:19:21;9.70;98.30
68485;DHT22;55472;50.060;21.960;2022-10-31T01:21:47;9.70;98.20
68485;DHT22;55472;50.060;21.960;2022-10-31T01:24:13;9.70;98.20
68485;DHT22;55472;50.060;21.960;2022-10-31T01:26:39;9.70;98.30
68485;DHT22;55472;50.060;21.960;2022-10-31T01:29:07;9.80;98.10
68485;DHT22;55472;50.060;21.960;2022-10-31T01:31:36;9.80;97.90
68485;DHT22;55472;50.060;21.960;2022-10-31T01:34:03;9.80;97.90
68485;DHT22;55472;50.060;21.960;2022-10-31T01:36:32;9.80;97.90
68485;DHT22;55472;50.060;21.960;2022-10-31T01:39:02;9.80;98.00
68485;DHT22;55472;50.060;21.960;2022-10-31T01:41:32;9.80;97.90
68485;DHT22;55472;50.060;21.960;2022-10-31T01:44:01;9.80;98.10
68485;DHT22;55472;50.060;21.960;2022-10-31T01:46:43;9.80;98.00
68485;DHT22;55472;50.060;21.960;2022-10-31T01:49:36;9.80;97.90
68485;DHT22;55472;50.060;21.960;2022-10-31T01:54:41;9.80;97.60
68485;DHT22;55472;50.060;21.960;2022-10-31T01:57:10;9.80;97.60
68485;DHT22;55472;50.060;21.960;2022-10-31T01:59:45;9.80;97.60
68485;DHT22;55472;50.060;21.960;2022-10-31T02:02:15;9.80;97.70
68485;DHT22;55472;50.060;21.960;2022-10-31T02:04:42;9.80;97.90
68485;DHT22;55472;50.060;21.960;2022-10-31T02:07:23;9.80;97.60
68485;DHT22;55472;50.060;21.960;2022-10-31T02:09:53;9.80;97.60
68485;DHT22;55472;50.060;21.960;2022-10-31T02:12:20;9.80;97.60
68485;DHT22;55472;50.060;21.960;2022-10-31T02:14:46;9.80;97.60
68485;DHT22;55472;50.060;21.960;2022-10-31T02:17:13;9.80;97.50
68485;DHT22;55472;50.060;21.960;2022-10-31T02:20:08;9.80;97.50
68485;DHT22;55472;50.060;21.960;2022-10-31T02:26:18;9.80;97.60
68485;DHT22;55472;50.060;21.960;2022-10-31T02:32:18;9.80;97.50
68485;DHT22;55472;50.060;21.960;2022-10-31T02:40:38;9.70;97.20
68485;DHT22;55472;50.060;21.960;2022-10-31T02:43:13;9.70;97.10
68485;DHT22;55472;50.060;21.960;2022-10-31T02:46:07;9.60;97.00
68485;DHT22;55472;50.060;21.960;2022-10-31T02:48:38;9.60;97.10
68485;DHT22;55472;50.060;21.960;2022-10-31T02:51:05;9.60;97.10
68485;DHT22;55472;50.060;21.960;2022-10-31T02:53:37;9.60;97.10
68485;DHT22;55472;50.060;21.960;2022-10-31T02:56:16;9.50;97.10
68485;DHT22;55472;50.060;21.960;2022-10-31T02:58:57;9.50;97.20
68485;DHT22;55472;50.060;21.960;2022-10-31T03:07:30;9.40;97.40
68485;DHT22;55472;50.060;21.960;2022-10-31T03:10:39;9.40;97.40
68485;DHT22;55472;50.060;21.960;2022-10-31T03:19:14;9.30;97.50
68485;DHT22;55472;50.060;21.960;2022-10-31T03:21:52;9.30;97.50
68485;DHT22;55472;50.060;21.960;2022-10-31T03:24:23;9.30;97.60
68485;DHT22;55472;50.060;21.960;2022-10-31T03:26:54;9.30;97.80
68485;DHT22;55472;50.060;21.960;2022-10-31T03:29:25;9.30;98.00
68485;DHT22;55472;50.060;21.960;2022-10-31T03:32:08;9.30;98.00
68485;DHT22;55472;50.060;21.960;2022-10-31T03:34:39;9.30;97.90
68485;DHT22;55472;50.060;21.960;2022-10-31T03:37:09;9.30;98.10
68485;DHT22;55472;50.060;21.960;2022-10-31T03:39:40;9.20;98.10
68485;DHT22;55472;50.060;21.960;2022-10-31T03:42:20;9.20;98.30
68485;DHT22;55472;50.060;21.960;2022-10-31T03:44:59;9.20;98.20
68485;DHT22;55472;50.060;21.960;2022-10-31T03:47:28;9.20;98.10
68485;DHT22;55472;50.060;21.960;2022-10-31T03:49:55;9.20;98.10
68485;DHT22;55472;50.060;21.960;2022-10-31T03:52:41;9.20;98.20
68485;DHT22;55472;50.060;21.960;2022-10-31T03:55:39;9.20;98.30
68485;DHT22;55472;50.060;21.960;2022-10-31T03:58:09;9.20;98.10
68485;DHT22;55472;50.060;21.960;2022-10-31T04:00:45;9.10;98.20
68485;DHT22;55472;50.060;21.960;2022-10-31T04:03:25;9.10;98.20
68485;DHT22;55472;50.060;21.960;2022-10-31T04:05:55;9.10;98.30
68485;DHT22;55472;50.060;21.960;2022-10-31T04:08:27;9.10;98.30
68485;DHT22;55472;50.060;21.960;2022-10-31T04:10:55;9.10;98.30
68485;DHT22;55472;50.060;21.960;2022-10-31T04:13:27;9.10;98.30
68485;DHT22;55472;50.060;21.960;2022-10-31T04:15:55;9.10;98.40
68485;DHT22;55472;50.060;21.960;2022-10-31T04:18:24;9.00;98.50
68485;DHT22;55472;50.060;21.960;2022-10-31T04:21:04;9.10;98.40
68485;DHT22;55472;50.060;21.960;2022-10-31T04:23:32;9.00;98.40
68485;DHT22;55472;50.060;21.960;2022-10-31T04:25:59;9.00;98.40
68485;DHT22;55472;50.060;21.960;2022-10-31T04:28:25;9.10;98.30
68485;DHT22;55472;50.060;21.960;2022-10-31T04:30:51;9.10;98.20
68485;DHT22;55472;50.060;21.960;2022-10-31T04:33:18;9.10;98.20
68485;DHT22;55472;50.060;21.960;2022-10-31T04:35:44;9.10;98.20
68485;DHT22;55472;50.060;21.960;2022-10-31T04:38:10;9.10;98.00
68485;DHT22;55472;50.060;21.960;2022-10-31T04:40:36;9.10;98.00
68485;DHT22;55472;50.060;21.960;2022-10-31T04:43:02;9.00;98.30
68485;DHT22;55472;50.060;21.960;2022-10-31T04:45:28;9.00;98.50
68485;DHT22;55472;50.060;21.960;2022-10-31T04:47:54;9.00;98.60
68485;DHT22;55472;50.060;21.960;2022-10-31T04:50:20;9.00;98.60
68485;DHT22;55472;50.060;21.960;2022-10-31T04:52:47;9.00;98.60
68485;DHT22;55472;50.060;21.960;2022-10-31T04:55:13;9.00;98.50
68485;DHT22;55472;50.060;21.960;2022-10-31T04:57:47;9.00;98.50
68485;DHT22;55472;50.060;21.960;2022-10-31T05:00:16;9.00;98.40
68485;DHT22;55472;50.060;21.960;2022-10-31T05:02:49;9.00;98.20
68485;DHT22;55472;50.060;21.960;2022-10-31T05:05:17;9.00;98.00
68485;DHT22;55472;50.060;21.960;2022-10-31T05:07:47;9.00;98.10
68485;DHT22;55472;50.060;21.960;2022-10-31T05:10:17;9.00;98.10
68485;DHT22;55472;50.060;21.960;2022-10-31T05:12:49;8.90;98.20
68485;DHT22;55472;50.060;21.960;2022-10-31T05:15:18;8.90;98.30
68485;DHT22;55472;50.060;21.960;2022-10-31T05:17:44;8.90;98.20
68485;DHT22;55472;50.060;21.960;2022-10-31T05:20:12;8.90;98.10
68485;DHT22;55472;50.060;21.960;2022-10-31T05:22:45;8.90;98.20
68485;DHT22;55472;50.060;21.960;2022-10-31T05:25:13;8.90;98.20
68485;DHT22;55472;50.060;21.960;2022-10-31T05:27:40;8.90;98.40
68485;DHT22;55472;50.060;21.960;2022-10-31T05:30:12;9.00;98.40
68485;DHT22;55472;50.060;21.960;2022-10-31T05:32:43;9.00;98.40
68485;DHT22;55472;50.060;21.960;2022-10-31T05:35:15;9.00;98.50
68485;DHT22;55472;50.060;21.960;2022-10-31T05:37:42;9.00;98.50
68485;DHT22;55472;50.060;21.960;2022-10-31T05:40:11;9.00;98.50
68485;DHT22;55472;50.060;21.960;2022-10-31T05:42:39;9.00;98.60
68485;DHT22;55472;50.060;21.960;2022-10-31T05:45:07;9.10;98.70
68485;DHT22;55472;50.060;21.960;2022-10-31T05:47:34;9.10;98.60
68485;DHT22;55472;50.060;21.960;2022-10-31T05:50:00;9.20;98.30
68485;DHT22;55472;50.060;21.960;2022-10-31T05:52:26;9.20;98.40
68485;DHT22;55472;50.060;21.960;2022-10-31T05:54:52;9.20;98.30
68485;DHT22;55472;50.060;21.960;2022-10-31T05:57:18;9.30;98.30
68485;DHT22;55472;50.060;21.960;2022-10-31T05:59:44;9.30;98.40
68485;DHT22;55472;50.060;21.960;2022-10-31T06:02:10;9.30;98.50
68485;DHT22;55472;50.060;21.960;2022-10-31T06:04:39;9.30;98.50
68485;DHT22;55472;50.060;21.960;2022-10-31T06:07:05;9.40;98.30
68485;DHT22;55472;50.060;21.960;2022-10-31T06:09:31;9.40;98.30
68485;DHT22;55472;50.060;21.960;2022-10-31T06:11:57;9.50;98.40
68485;DHT22;55472;50.060;21.960;2022-10-31T06:14:23;9.60;98.50
68485;DHT22;55472;50.060;21.960;2022-10-31T06:16:49;9.60;98.50
68485;DHT22;55472;50.060;21.960;2022-10-31T06:19:15;9.70;98.50
68485;DHT22;55472;50.060;21.960;2022-10-31T06:21:41;9.80;98.20
68485;DHT22;55472;50.060;21.960;2022-10-31T06:24:07;9.90;97.80
68485;DHT22;55472;50.060;21.960;2022-10-31T06:26:33;10.00;97.20
68485;DHT22;55472;50.060;21.960;2022-10-31T06:28:59;10.20;96.80
68485;DHT22;55472;50.060;21.960;2022-10-31T06:31:25;10.30;96.20
68485;DHT22;55472;50.060;21.960;2022-10-31T06:33:51;10.40;95.70
68485;DHT22;55472;50.060;21.960;2022-10-31T06:36:17;10.60;94.90
68485;DHT22;55472;50.060;21.960;2022-10-31T06:38:43;10.70;94.10
68485;DHT22;55472;50.060;21.960;2022-10-31T06:41:08;10.80;93.10
68485;DHT22;55472;50.060;21.960;2022-10-31T06:43:35;10.90;92.40
68485;DHT22;55472;50.060;21.960;2022-10-31T06:46:04;11.10;91.90
68485;DHT22;55472;50.060;21.960;2022-10-31T06:48:32;11.30;90.10
68485;DHT22;55472;50.060;21.960;2022-10-31T06:51:01;11.40;89.60
68485;DHT22;55472;50.060;21.960;2022-10-31T06:53:27;11.50;88.60
68485;DHT22;55472;50.060;21.960;2022-10-31T06:55:56;11.70;88.50
68485;DHT22;55472;50.060;21.960;2022-10-31T06:58:22;11.80;87.90
68485;DHT22;55472;50.060;21.960;2022-10-31T07:00:48;12.00;86.90
68485;DHT22;55472;50.060;21.960;2022-10-31T07:03:15;12.20;85.20
68485;DHT22;55472;50.060;21.960;2022-10-31T07:05:41;12.30;84.40
68485;DHT22;55472;50.060;21.960;2022-10-31T07:08:11;12.40;84.10
68485;DHT22;55472;50.060;21.960;2022-10-31T07:10:39;12.50;83.00
68485;DHT22;55472;50.060;21.960;2022-10-31T07:13:11;12.70;82.50
68485;DHT22;55472;50.060;21.960;2022-10-31T07:15:40;12.80;82.20
68485;DHT22;55472;50.060;21.960;2022-10-31T07:18:09;13.00;82.60
68485;DHT22;55472;50.060;21.960;2022-10-31T07:20:35;13.20;81.50
68485;DHT22;55472;50.060;21.960;2022-10-31T07:23:02;13.50;80.40
68485;DHT22;55472;50.060;21.960;2022-10-31T07:25:29;13.70;79.40
68485;DHT22;55472;50.060;21.960;2022-10-31T07:27:55;14.00;78.20
68485;DHT22;55472;50.060;21.960;2022-10-31T07:30:21;14.30;76.40
68485;DHT22;55472;50.060;21.960;2022-10-31T07:32:49;14.50;75.40
68485;DHT22;55472;50.060;21.960;2022-10-31T07:35:17;14.80;74.90
68485;DHT22;55472;50.060;21.960;2022-10-31T07:37:45;15.10;73.50
68485;DHT22;55472;50.060;21.960;2022-10-31T07:40:11;15.60;71.50
68485;DHT22;55472;50.060;21.960;2022-10-31T07:42:45;16.40;69.20
68485;DHT22;55472;50.060;21.960;2022-10-31T07:45:16;17.40;65.60
68485;DHT22;55472;50.060;21.960;2022-10-31T07:47:50;18.60;62.80
68485;DHT22;55472;50.060;21.960;2022-10-31T07:50:29;20.00;59.20
68485;DHT22;55472;50.060;21.960;2022-10-31T07:55:33;22.40;52.70
68485;DHT22;55472;50.060;21.960;2022-10-31T07:58:09;23.50;49.80
68485;DHT22;55472;50.060;21.960;2022-10-31T08:00:37;24.20;48.60
68485;DHT22;55472;50.060;21.960;2022-10-31T08:03:06;24.90;47.80
68485;DHT22;55472;50.060;21.960;2022-10-31T08:05:39;25.90;46.20
68485;DHT22;55472;50.060;21.960;2022-10-31T08:08:09;26.80;43.90
68485;DHT22;55472;50.060;21.960;2022-10-31T08:10:38;27.40;43.30
68485;DHT22;55472;50.060;21.960;2022-10-31T08:13:09;28.00;41.60
68485;DHT22;55472;50.060;21.960;2022-10-31T08:15:37;28.00;41.20
68485;DHT22;55472;50.060;21.960;2022-10-31T08:18:06;28.20;41.40
68485;DHT22;55472;50.060;21.960;2022-10-31T08:20:37;28.80;41.10
68485;DHT22;55472;50.060;21.960;2022-10-31T08:23:05;29.30;40.30
68485;DHT22;55472;50.060;21.960;2022-10-31T08:25:33;29.90;39.30
68485;DHT22;55472;50.060;21.960;2022-10-31T08:28:00;30.30;38.70
68485;DHT22;55472;50.060;21.960;2022-10-31T08:30:28;30.60;38.00
68485;DHT22;55472;50.060;21.960;2022-10-31T08:33:16;31.30;38.00
68485;DHT22;55472;50.060;21.960;2022-10-31T08:35:44;32.20;35.90
68485;DHT22;55472;50.060;21.960;2022-10-31T08:38:11;32.50;35.90
68485;DHT22;55472;50.060;21.960;2022-10-31T08:40:38;33.00;35.40
68485;DHT22;55472;50.060;21.960;2022-10-31T08:43:08;33.30;35.10
68485;DHT22;55472;50.060;21.960;2022-10-31T08:45:36;33.30;34.50
68485;DHT22;55472;50.060;21.960;2022-10-31T08:48:08;33.30;35.00
68485;DHT22;55472;50.060;21.960;2022-10-31T08:50:36;33.20;34.90
68485;DHT22;55472;50.060;21.960;2022-10-31T08:53:05;32.90;35.20
68485;DHT22;55472;50.060;21.960;2022-10-31T08:55:34;31.40;36.90
68485;DHT22;55472;50.060;21.960;2022-10-31T08:58:02;29.80;39.00
68485;DHT22;55472;50.060;21.960;2022-10-31T09:00:29;28.40;40.70
68485;DHT22;55472;50.060;21.960;2022-10-31T09:02:58;27.30;42.50
68485;DHT22;55472;50.060;21.960;2022-10-31T09:05:25;26.40;44.20
68485;DHT22;55472;50.060;21.960;2022-10-31T09:07:55;25.40;45.90
68485;DHT22;55472;50.060;21.960;2022-10-31T09:10:25;24.70;46.80
68485;DHT22;55472;50.060;21.960;2022-10-31T09:12:58;24.10;48.50
68485;DHT22;55472;50.060;21.960;2022-10-31T09:15:26;23.60;50.20
68485;DHT22;55472;50.060;21.960;2022-10-31T09:17:54;23.30;51.60
68485;DHT22;55472;50.060;21.960;2022-10-31T09:20:20;24.80;47.50
68485;DHT22;55472;50.060;21.960;2022-10-31T09:22:46;26.20;45.60
68485;DHT22;55472;50.060;21.960;2022-10-31T09:25:12;27.40;43.80
68485;DHT22;55472;50.060;21.960;2022-10-31T09:27:38;28.30;43.10
68485;DHT22;55472;50.060;21.960;2022-10-31T09:30:05;28.80;42.70
68485;DHT22;55472;50.060;21.960;2022-10-31T09:32:31;28.60;41.30
68485;DHT22;55472;50.060;21.960;2022-10-31T09:34:57;27.80;41.90
68485;DHT22;55472;50.060;21.960;2022-10-31T09:37:23;27.00;43.00
68485;DHT22;55472;50.060;21.960;2022-10-31T09:39:49;26.20;44.80
68485;DHT22;55472;50.060;21.960;2022-10-31T09:45:07;24.80;47.80
68485;DHT22;55472;50.060;21.960;2022-10-31T09:47:47;24.10;48.60
68485;DHT22;55472;50.060;21.960;2022-10-31T09:50:22;23.60;49.90
68485;DHT22;55472;50.060;21.960;2022-10-31T09:53:05;23.20;50.80
68485;DHT22;55472;50.060;21.960;2022-10-31T09:55:39;22.80;51.50
68485;DHT22;55472;50.060;21.960;2022-10-31T09:58:48;22.40;52.60
68485;DHT22;55472;50.060;21.960;2022-10-31T10:01:23;22.40;52.60
68485;DHT22;55472;50.060;21.960;2022-10-31T10:06:54;22.40;53.60
68485;DHT22;55472;50.060;21.960;2022-10-31T10:09:25;22.50;53.70
68485;DHT22;55472;50.060;21.960;2022-10-31T10:21:03;22.00;54.90
68485;DHT22;55472;50.060;21.960;2022-10-31T10:24:09;22.20;54.30
68485;DHT22;55472;50.060;21.960;2022-10-31T10:30:19;22.90;53.60
68485;DHT22;55472;50.060;21.960;2022-10-31T10:32:53;23.30;52.30
68485;DHT22;55472;50.060;21.960;2022-10-31T10:40:34;23.40;53.00
68485;DHT22;55472;50.060;21.960;2022-10-31T10:45:49;23.20;52.80
68485;DHT22;55472;50.060;21.960;2022-10-31T10:48:42;23.20;53.60
68485;DHT22;55472;50.060;21.960;2022-10-31T10:51:37;23.10;53.80
68485;DHT22;55472;50.060;21.960;2022-10-31T10:59:46;23.00;53.90
68485;DHT22;55472;50.060;21.960;2022-10-31T11:02:24;23.00;53.60
68485;DHT22;55472;50.060;21.960;2022-10-31T11:04:57;22.90;53.80
68485;DHT22;55472;50.060;21.960;2022-10-31T11:07:26;22.80;54.10
68485;DHT22;55472;50.060;21.960;2022-10-31T11:10:11;22.90;55.00
68485;DHT22;55472;50.060;21.960;2022-10-31T11:12:40;22.90;54.60
68485;DHT22;55472;50.060;21.960;2022-10-31T11:15:18;22.90;54.00
68485;DHT22;55472;50.060;21.960;2022-10-31T11:17:49;23.00;55.10
68485;DHT22;55472;50.060;21.960;2022-10-31T11:22:44;23.20;54.40
68485;DHT22;55472;50.060;21.960;2022-10-31T11:25:21;23.40;53.80
68485;DHT22;55472;50.060;21.960;2022-10-31T11:28:08;23.50;53.60
68485;DHT22;55472;50.060;21.960;2022-10-31T11:30:47;23.50;53.90
68485;DHT22;55472;50.060;21.960;2022-10-31T11:33:19;23.60;53.70
68485;DHT22;55472;50.060;21.960;2022-10-31T11:35:55;23.50;53.30
68485;DHT22;55472;50.060;21.960;2022-10-31T11:38:25;23.60;53.80
68485;DHT22;55472;50.060;21.960;2022-10-31T11:41:09;23.70;54.20
68485;DHT22;55472;50.060;21.960;2022-10-31T11:43:50;23.70;53.80
68485;DHT22;55472;50.060;21.960;2022-10-31T11:46:41;23.90;54.00
68485;DHT22;55472;50.060;21.960;2022-10-31T11:49:37;24.00;53.30
68485;DHT22;55472;50.060;21.960;2022-10-31T11:52:19;24.20;53.00
68485;DHT22;55472;50.060;21.960;2022-10-31T11:54:57;24.20;52.80
68485;DHT22;55472;50.060;21.960;2022-10-31T11:59:59;24.30;52.70
68485;DHT22;55472;50.060;21.960;2022-10-31T12:02:27;24.20;52.90
68485;DHT22;55472;50.060;21.960;2022-10-31T12:04:59;24.10;53.10
68485;DHT22;55472;50.060;21.960;2022-10-31T12:07:34;24.20;53.50
68485;DHT22;55472;50.060;21.960;2022-10-31T12:10:00;24.30;53.30
68485;DHT22;55472;50.060;21.960;2022-10-31T12:15:53;24.40;52.70
68485;DHT22;55472;50.060;21.960;2022-10-31T12:18:38;24.50;52.80
68485;DHT22;55472;50.060;21.960;2022-10-31T12:21:19;24.60;52.60
68485;DHT22;55472;50.060;21.960;2022-10-31T12:24:17;24.60;52.70
68485;DHT22;55472;50.060;21.960;2022-10-31T12:39:25;24.60;52.50
68485;DHT22;55472;50.060;21.960;2022-10-31T12:45:18;24.50;52.60
68485;DHT22;55472;50.060;21.960;2022-10-31T12:51:33;24.20;53.20
68485;DHT22;55472;50.060;21.960;2022-10-31T12:57:11;24.20;53.60
68485;DHT22;55472;50.060;21.960;2022-10-31T13:05:16;24.20;53.90
68485;DHT22;55472;50.060;21.960;2022-10-31T13:08:08;24.10;53.40
68485;DHT22;55472;50.060;21.960;2022-10-31T13:10:59;24.10;53.90
68485;DHT22;55472;50.060;21.960;2022-10-31T13:16:16;24.00;53.90
68485;DHT22;55472;50.060;21.960;2022-10-31T13:18:46;23.90;54.30
68485;DHT22;55472;50.060;21.960;2022-10-31T13:21:20;23.80;54.10
68485;DHT22;55472;50.060;21.960;2022-10-31T13:23:50;23.60;54.30
68485;DHT22;55472;50.060;21.960;2022-10-31T13:32:06;23.50;55.00
68485;DHT22;55472;50.060;21.960;2022-10-31T13:34:36;23.50;55.00
68485;DHT22;55472;50.060;21.960;2022-10-31T13:37:29;23.40;55.10
68485;DHT22;55472;50.060;21.960;2022-10-31T13:40:17;23.40;55.50
68485;DHT22;55472;50.060;21.960;2022-10-31T13:45:59;23.30;55.90
68485;DHT22;55472;50.060;21.960;2022-10-31T13:51:09;23.20;56.10
68485;DHT22;55472;50.060;21.960;2022-10-31T13:56:25;23.00;55.80
68485;DHT22;55472;50.060;21.960;2022-10-31T13:59:17;22.90;56.50
68485;DHT22;55472;50.060;21.960;2022-10-31T14:01:57;22.80;56.50
68485;DHT22;55472;50.060;21.960;2022-10-31T14:04:37;22.80;56.80
68485;DHT22;55472;50.060;21.960;2022-10-31T14:07:07;22.70;56.80
68485;DHT22;55472;50.060;21.960;2022-10-31T14:10:02;22.70;57.60
68485;DHT22;55472;50.060;21.960;2022-10-31T14:15:54;22.60;58.20
68485;DHT22;55472;50.060;21.960;2022-10-31T14:18:35;22.50;58.40
68485;DHT22;55472;50.060;21.960;2022-10-31T14:23:48;22.40;59.20
68485;DHT22;55472;50.060;21.960;2022-10-31T14:28:56;22.20;60.00
68485;DHT22;55472;50.060;21.960;2022-10-31T14:31:31;22.10;60.40
68485;DHT22;55472;50.060;21.960;2022-10-31T14:33:59;22.10;60.50
68485;DHT22;55472;50.060;21.960;2022-10-31T14:36:42;22.00;60.80
68485;DHT22;55472;50.060;21.960;2022-10-31T14:45:39;21.40;62.90
68485;DHT22;55472;50.060;21.960;2022-10-31T14:48:55;21.20;63.10
68485;DHT22;55472;50.060;21.960;2022-10-31T14:51:39;20.90;63.50
68485;DHT22;55472;50.060;21.960;2022-10-31T14:54:33;20.70;64.20
68485;DHT22;55472;50.060;21.960;2022-10-31T14:57:31;20.50;64.60
68485;DHT22;55472;50.060;21.960;2022-10-31T15:00:05;20.20;65.40
68485;DHT22;55472;50.060;21.960;2022-10-31T15:03:18;19.90;65.60
68485;DHT22;55472;50.060;21.960;2022-10-31T15:05:58;19.60;66.50
68485;DHT22;55472;50.060;21.960;2022-10-31T15:08:44;19.40;67.60
68485;DHT22;55472;50.060;21.960;2022-10-31T15:11:20;19.10;68.00
68485;DHT22;55472;50.060;21.960;2022-10-31T15:13:53;18.90;68.40
68485;DHT22;55472;50.060;21.960;2022-10-31T15:19:00;18.50;69.30
68485;DHT22;55472;50.060;21.960;2022-10-31T15:21:29;18.40;69.70
68485;DHT22;55472;50.060;21.960;2022-10-31T15:23:57;18.20;70.10
68485;DHT22;55472;50.060;21.960;2022-10-31T15:26:46;18.10;70.00
68485;DHT22;55472;50.060;21.960;2022-10-31T15:29:15;17.90;70.50
68485;DHT22;55472;50.060;21.960;2022-10-31T15:31:56;17.70;70.90
68485;DHT22;55472;50.060;21.960;2022-10-31T15:34:38;17.60;70.70
68485;DHT22;55472;50.060;21.960;2022-10-31T15:37:11;17.40;71.00
68485;DHT22;55472;50.060;21.960;2022-10-31T15:39:39;17.30;71.50
68485;DHT22;55472;50.060;21.960;2022-10-31T15:42:22;17.10;71.70
68485;DHT22;55472;50.060;21.960;2022-10-31T15:47:29;16.80;72.80
68485;DHT22;55472;50.060;21.960;2022-10-31T15:49:57;16.60;72.60
68485;DHT22;55472;50.060;21.960;2022-10-31T15:52:54;16.50;73.20
68485;DHT22;55472;50.060;21.960;2022-10-31T15:55:22;16.40;73.70
68485;DHT22;55472;50.060;21.960;2022-10-31T15:57:52;16.30;73.40
68485;DHT22;55472;50.060;21.960;2022-10-31T16:00:31;16.30;73.50
68485;DHT22;55472;50.060;21.960;2022-10-31T16:03:04;16.20;73.50
68485;DHT22;55472;50.060;21.960;2022-10-31T16:13:51;15.80;74.40
68485;DHT22;55472;50.060;21.960;2022-10-31T16:16:19;15.80;75.00
68485;DHT22;55472;50.060;21.960;2022-10-31T16:18:46;15.80;75.10
68485;DHT22;55472;50.060;21.960;2022-10-31T16:21:13;15.70;74.60
68485;DHT22;55472;50.060;21.960;2022-10-31T16:23:45;15.60;75.00
68485;DHT22;55472;50.060;21.960;2022-10-31T16:26:18;15.60;75.00
68485;DHT22;55472;50.060;21.960;2022-10-31T16:28:52;15.50;74.90
68485;DHT22;55472;50.060;21.960;2022-10-31T16:31:27;15.50;74.80
68485;DHT22;55472;50.060;21.960;2022-10-31T16:34:03;15.40;75.00
68485;DHT22;55472;50.060;21.960;2022-10-31T16:36:33;15.30;75.20
68485;DHT22;55472;50.060;21.960;2022-10-31T16:39:03;15.20;76.20
68485;DHT22;55472;50.060;21.960;2022-10-31T16:41:30;15.10;76.00
68485;DHT22;55472;50.060;21.960;2022-10-31T16:44:09;15.10;76.50
68485;DHT22;55472;50.060;21.960;2022-10-31T16:46:40;15.00;76.60
68485;DHT22;55472;50.060;21.960;2022-10-31T16:49:09;15.00;76.70
68485;DHT22;55472;50.060;21.960;2022-10-31T16:51:35;14.80;76.90
68485;DHT22;55472;50.060;21.960;2022-10-31T16:54:01;14.80;77.10
68485;DHT22;55472;50.060;21.960;2022-10-31T16:56:32;14.80;77.00
68485;DHT22;55472;50.060;21.960;2022-10-31T16:59:01;14.80;76.90
68485;DHT22;55472;50.060;21.960;2022-10-31T17:01:29;14.80;76.60
68485;DHT22;55472;50.060;21.960;2022-10-31T17:03:56;14.70;76.70
68485;DHT22;55472;50.060;21.960;2022-10-31T17:06:22;14.60;77.10
68485;DHT22;55472;50.060;21.960;2022-10-31T17:08:48;14.60;77.20
68485;DHT22;55472;50.060;21.960;2022-10-31T17:11:17;14.60;77.20
68485;DHT22;55472;50.060;21.960;2022-10-31T17:13:44;14.60;77.20
68485;DHT22;55472;50.060;21.960;2022-10-31T17:16:12;14.50;77.20
68485;DHT22;55472;50.060;21.960;2022-10-31T17:18:40;14.50;77.50
68485;DHT22;55472;50.060;21.960;2022-10-31T17:21:22;14.30;77.80
68485;DHT22;55472;50.060;21.960;2022-10-31T17:23:49;14.20;78.10
68485;DHT22;55472;50.060;21.960;2022-10-31T17:26:16;14.10;78.40
68485;DHT22;55472;50.060;21.960;2022-10-31T17:28:42;14.00;78.90
68485;DHT22;55472;50.060;21.960;2022-10-31T17:31:21;14.00;79.10
68485;DHT22;55472;50.060;21.960;2022-10-31T17:33:58;13.90;79.50
68485;DHT22;55472;50.060;21.960;2022-10-31T17:36:25;13.80;79.60
68485;DHT22;55472;50.060;21.960;2022-10-31T17:38:51;13.80;79.60
68485;DHT22;55472;50.060;21.960;2022-10-31T17:41:17;13.70;79.80
68485;DHT22;55472;50.060;21.960;2022-10-31T17:43:43;13.70;79.80
68485;DHT22;55472;50.060;21.960;2022-10-31T17:46:09;13.60;80.30
68485;DHT22;55472;50.060;21.960;2022-10-31T17:48:37;13.50;80.50
68485;DHT22;55472;50.060;21.960;2022-10-31T17:51:05;13.50;80.70
68485;DHT22;55472;50.060;21.960;2022-10-31T17:53:33;13.50;80.70
68485;DHT22;55472;50.060;21.960;2022-10-31T17:56:01;13.40;80.40
68485;DHT22;55472;50.060;21.960;2022-10-31T17:58:29;13.40;80.50
68485;DHT22;55472;50.060;21.960;2022-10-31T18:00:56;13.30;80.80
68485;DHT22;55472;50.060;21.960;2022-10-31T18:03:23;13.20;81.10
68485;DHT22;55472;50.060;21.960;2022-10-31T18:05:57;13.20;81.40
68485;DHT22;55472;50.060;21.960;2022-10-31T18:08:29;13.20;81.60
68485;DHT22;55472;50.060;21.960;2022-10-31T18:10:56;13.10;81.80
68485;DHT22;55472;50.060;21.960;2022-10-31T18:13:26;13.10;81.90